sensor_id;sensor_type;location;lat;lon;timestamp;P1;durP1;ratioP1;P2;durP2;ratioP2
66669;SDS011;53568;52.164;4.472;2023-12-29T00:00:34;12.16;;;7.92;;
66669;SDS011;53568;52.164;4.472;2023-12-29T00:03:00;12.01;;;7.75;;
66669;SDS011;53568;52.164;4.472;2023-12-29T00:05:25;10.94;;;7.18;;
66669;SDS011;53568;52.164;4.472;2023-12-29T00:07:52;10.60;;;7.05;;
66669;SDS011;53568;52.164;4.472;2023-12-29T00:10:18;10.05;;;6.75;;
66669;SDS011;53568;52.164;4.472;2023-12-29T00:12:43;9.92;;;6.75;;
66669;SDS011;53568;52.164;4.472;2023-12-29T00:15:09;9.55;;;6.57;;
66669;SDS011;53568;52.164;4.472;2023-12-29T00:17:35;8.84;;;6.00;;
66669;SDS011;53568;52.164;4.472;2023-12-29T00:20:06;9.58;;;6.35;;
66669;SDS011;53568;52.164;4.472;2023-12-29T00:22:33;9.53;;;6.44;;
66669;SDS011;53568;52.164;4.472;2023-12-29T00:24:59;10.13;;;6.82;;
66669;SDS011;53568;52.164;4.472;2023-12-29T00:27:25;10.04;;;6.67;;
66669;SDS011;53568;52.164;4.472;2023-12-29T00:29:50;11.04;;;7.39;;
66669;SDS011;53568;52.164;4.472;2023-12-29T00:32:16;9.97;;;7.00;;
66669;SDS011;53568;52.164;4.472;2023-12-29T00:34:41;10.06;;;7.00;;
66669;SDS011;53568;52.164;4.472;2023-12-29T00:37:07;9.74;;;6.75;;
66669;SDS011;53568;52.164;4.472;2023-12-29T00:39:33;9.56;;;6.69;;
66669;SDS011;53568;52.164;4.472;2023-12-29T00:42:04;9.86;;;6.80;;
66669;SDS011;53568;52.164;4.472;2023-12-29T00:44:31;10.07;;;6.89;;
66669;SDS011;53568;52.164;4.472;2023-12-29T00:46:57;9.47;;;6.50;;
66669;SDS011;53568;52.164;4.472;2023-12-29T00:49:22;9.32;;;6.36;;
66669;SDS011;53568;52.164;4.472;2023-12-29T00:51:48;9.46;;;6.43;;
66669;SDS011;53568;52.164;4.472;2023-12-29T00:54:14;9.75;;;6.55;;
66669;SDS011;53568;52.164;4.472;2023-12-29T00:56:39;10.48;;;6.80;;
66669;SDS011;53568;52.164;4.472;2023-12-29T00:59:05;9.36;;;6.18;;
66669;SDS011;53568;52.164;4.472;2023-12-29T01:01:34;8.23;;;5.56;;
66669;SDS011;53568;52.164;4.472;2023-12-29T01:04:00;9.51;;;6.32;;
66669;SDS011;53568;52.164;4.472;2023-12-29T01:06:26;9.37;;;6.21;;
66669;SDS011;53568;52.164;4.472;2023-12-29T01:08:51;9.11;;;6.06;;
66669;SDS011;53568;52.164;4.472;2023-12-29T01:11:17;8.90;;;5.92;;
66669;SDS011;53568;52.164;4.472;2023-12-29T01:13:42;9.73;;;6.43;;
66669;SDS011;53568;52.164;4.472;2023-12-29T01:16:08;9.05;;;6.02;;
66669;SDS011;53568;52.164;4.472;2023-12-29T01:18:33;8.83;;;5.94;;
66669;SDS011;53568;52.164;4.472;2023-12-29T01:20:59;9.13;;;6.11;;
66669;SDS011;53568;52.164;4.472;2023-12-29T01:23:24;9.39;;;6.34;;
66669;SDS011;53568;52.164;4.472;2023-12-29T01:25:50;9.23;;;6.17;;
66669;SDS011;53568;52.164;4.472;2023-12-29T01:28:15;9.18;;;6.18;;
66669;SDS011;53568;52.164;4.472;2023-12-29T01:30:41;9.44;;;6.45;;
66669;SDS011;53568;52.164;4.472;2023-12-29T01:33:06;8.05;;;5.69;;
66669;SDS011;53568;52.164;4.472;2023-12-29T01:35:32;8.75;;;6.18;;
66669;SDS011;53568;52.164;4.472;2023-12-29T01:37:57;9.13;;;6.38;;
66669;SDS011;53568;52.164;4.472;2023-12-29T01:40:23;9.02;;;6.12;;
66669;SDS011;53568;52.164;4.472;2023-12-29T01:42:48;8.27;;;5.63;;
66669;SDS011;53568;52.164;4.472;2023-12-29T01:45:24;8.87;;;5.83;;
66669;SDS011;53568;52.164;4.472;2023-12-29T01:47:51;8.29;;;5.48;;
66669;SDS011;53568;52.164;4.472;2023-12-29T01:50:18;9.59;;;6.33;;
66669;SDS011;53568;52.164;4.472;2023-12-29T01:52:47;9.18;;;6.01;;
66669;SDS011;53568;52.164;4.472;2023-12-29T01:55:15;11.19;;;7.09;;
66669;SDS011;53568;52.164;4.472;2023-12-29T01:57:45;12.14;;;7.57;;
66669;SDS011;53568;52.164;4.472;2023-12-29T02:00:12;10.75;;;6.89;;
66669;SDS011;53568;52.164;4.472;2023-12-29T02:02:38;10.37;;;6.70;;
66669;SDS011;53568;52.164;4.472;2023-12-29T02:05:05;11.54;;;7.32;;
66669;SDS011;53568;52.164;4.472;2023-12-29T02:07:31;11.40;;;7.17;;
66669;SDS011;53568;52.164;4.472;2023-12-29T02:09:58;12.01;;;7.58;;
66669;SDS011;53568;52.164;4.472;2023-12-29T02:12:24;13.59;;;8.43;;
66669;SDS011;53568;52.164;4.472;2023-12-29T02:14:50;13.48;;;8.34;;
66669;SDS011;53568;52.164;4.472;2023-12-29T02:19:49;14.34;;;8.65;;
66669;SDS011;53568;52.164;4.472;2023-12-29T02:22:15;13.87;;;8.40;;
66669;SDS011;53568;52.164;4.472;2023-12-29T02:24:50;13.21;;;8.18;;
66669;SDS011;53568;52.164;4.472;2023-12-29T02:27:18;13.87;;;8.50;;
66669;SDS011;53568;52.164;4.472;2023-12-29T02:30:32;15.71;;;9.46;;
66669;SDS011;53568;52.164;4.472;2023-12-29T02:33:14;17.13;;;10.22;;
66669;SDS011;53568;52.164;4.472;2023-12-29T02:35:45;17.45;;;10.44;;
66669;SDS011;53568;52.164;4.472;2023-12-29T02:38:14;16.52;;;9.87;;
66669;SDS011;53568;52.164;4.472;2023-12-29T02:40:40;17.62;;;10.53;;
66669;SDS011;53568;52.164;4.472;2023-12-29T02:43:08;16.79;;;10.14;;
66669;SDS011;53568;52.164;4.472;2023-12-29T02:45:34;17.71;;;10.64;;
66669;SDS011;53568;52.164;4.472;2023-12-29T02:47:59;20.42;;;12.08;;
66669;SDS011;53568;52.164;4.472;2023-12-29T02:50:25;20.18;;;12.01;;
66669;SDS011;53568;52.164;4.472;2023-12-29T02:52:50;20.99;;;12.50;;
66669;SDS011;53568;52.164;4.472;2023-12-29T02:55:16;20.67;;;12.42;;
66669;SDS011;53568;52.164;4.472;2023-12-29T02:57:41;20.77;;;12.51;;
66669;SDS011;53568;52.164;4.472;2023-12-29T03:00:07;21.77;;;12.90;;
66669;SDS011;53568;52.164;4.472;2023-12-29T03:02:33;21.11;;;12.55;;
66669;SDS011;53568;52.164;4.472;2023-12-29T03:04:59;19.84;;;11.66;;
66669;SDS011;53568;52.164;4.472;2023-12-29T03:07:25;19.11;;;11.25;;
66669;SDS011;53568;52.164;4.472;2023-12-29T03:09:52;19.19;;;11.27;;
66669;SDS011;53568;52.164;4.472;2023-12-29T03:12:17;17.52;;;10.47;;
66669;SDS011;53568;52.164;4.472;2023-12-29T03:14:43;18.14;;;10.75;;
66669;SDS011;53568;52.164;4.472;2023-12-29T03:17:09;18.04;;;10.73;;
66669;SDS011;53568;52.164;4.472;2023-12-29T03:19:35;17.67;;;10.56;;
66669;SDS011;53568;52.164;4.472;2023-12-29T03:22:01;19.43;;;11.40;;
66669;SDS011;53568;52.164;4.472;2023-12-29T03:24:27;18.17;;;10.78;;
66669;SDS011;53568;52.164;4.472;2023-12-29T03:26:54;17.84;;;10.57;;
66669;SDS011;53568;52.164;4.472;2023-12-29T03:29:19;17.70;;;10.45;;
66669;SDS011;53568;52.164;4.472;2023-12-29T03:31:45;17.65;;;10.46;;
66669;SDS011;53568;52.164;4.472;2023-12-29T03:34:10;17.78;;;10.45;;
66669;SDS011;53568;52.164;4.472;2023-12-29T03:36:36;17.44;;;10.30;;
66669;SDS011;53568;52.164;4.472;2023-12-29T03:39:02;14.78;;;8.92;;
66669;SDS011;53568;52.164;4.472;2023-12-29T03:41:28;14.38;;;8.67;;
66669;SDS011;53568;52.164;4.472;2023-12-29T03:43:53;15.65;;;9.33;;
66669;SDS011;53568;52.164;4.472;2023-12-29T03:46:19;15.89;;;9.45;;
66669;SDS011;53568;52.164;4.472;2023-12-29T03:48:46;16.79;;;10.05;;
66669;SDS011;53568;52.164;4.472;2023-12-29T03:51:12;17.52;;;10.41;;
66669;SDS011;53568;52.164;4.472;2023-12-29T03:53:39;15.24;;;9.12;;
66669;SDS011;53568;52.164;4.472;2023-12-29T03:56:05;17.24;;;10.21;;
66669;SDS011;53568;52.164;4.472;2023-12-29T03:58:34;16.49;;;9.79;;
66669;SDS011;53568;52.164;4.472;2023-12-29T04:01:00;16.37;;;9.81;;
66669;SDS011;53568;52.164;4.472;2023-12-29T04:03:26;18.94;;;11.18;;
66669;SDS011;53568;52.164;4.472;2023-12-29T04:05:52;22.89;;;13.33;;
66669;SDS011;53568;52.164;4.472;2023-12-29T04:08:17;22.52;;;13.15;;
66669;SDS011;53568;52.164;4.472;2023-12-29T04:10:43;21.29;;;12.48;;
66669;SDS011;53568;52.164;4.472;2023-12-29T04:13:08;20.55;;;12.18;;
66669;SDS011;53568;52.164;4.472;2023-12-29T04:15:34;22.10;;;12.92;;
66669;SDS011;53568;52.164;4.472;2023-12-29T04:17:59;23.09;;;13.50;;
66669;SDS011;53568;52.164;4.472;2023-12-29T04:20:25;23.46;;;13.81;;
66669;SDS011;53568;52.164;4.472;2023-12-29T04:22:50;20.50;;;12.11;;
66669;SDS011;53568;52.164;4.472;2023-12-29T04:25:16;22.82;;;13.45;;
66669;SDS011;53568;52.164;4.472;2023-12-29T04:27:41;21.89;;;12.85;;
66669;SDS011;53568;52.164;4.472;2023-12-29T04:30:07;21.51;;;12.67;;
66669;SDS011;53568;52.164;4.472;2023-12-29T04:32:33;20.57;;;12.37;;
66669;SDS011;53568;52.164;4.472;2023-12-29T04:34:58;19.96;;;11.88;;
66669;SDS011;53568;52.164;4.472;2023-12-29T04:37:24;22.28;;;12.94;;
66669;SDS011;53568;52.164;4.472;2023-12-29T04:39:49;21.43;;;12.60;;
66669;SDS011;53568;52.164;4.472;2023-12-29T04:42:15;20.58;;;12.10;;
66669;SDS011;53568;52.164;4.472;2023-12-29T04:44:43;21.62;;;12.68;;
66669;SDS011;53568;52.164;4.472;2023-12-29T04:47:09;22.44;;;13.11;;
66669;SDS011;53568;52.164;4.472;2023-12-29T04:49:34;21.55;;;12.60;;
66669;SDS011;53568;52.164;4.472;2023-12-29T04:52:00;21.17;;;12.53;;
66669;SDS011;53568;52.164;4.472;2023-12-29T04:54:25;21.38;;;12.62;;
66669;SDS011;53568;52.164;4.472;2023-12-29T04:56:51;20.58;;;12.14;;
66669;SDS011;53568;52.164;4.472;2023-12-29T04:59:17;20.34;;;12.04;;
66669;SDS011;53568;52.164;4.472;2023-12-29T05:01:42;21.73;;;12.70;;
66669;SDS011;53568;52.164;4.472;2023-12-29T05:04:08;22.46;;;13.07;;
66669;SDS011;53568;52.164;4.472;2023-12-29T05:06:33;21.67;;;12.84;;
66669;SDS011;53568;52.164;4.472;2023-12-29T05:08:59;19.57;;;11.84;;
66669;SDS011;53568;52.164;4.472;2023-12-29T05:11:24;21.38;;;12.85;;
66669;SDS011;53568;52.164;4.472;2023-12-29T05:13:50;23.03;;;13.66;;
66669;SDS011;53568;52.164;4.472;2023-12-29T05:16:16;22.63;;;13.28;;
66669;SDS011;53568;52.164;4.472;2023-12-29T05:18:41;24.20;;;14.21;;
66669;SDS011;53568;52.164;4.472;2023-12-29T05:21:13;23.66;;;13.95;;
66669;SDS011;53568;52.164;4.472;2023-12-29T05:23:43;22.87;;;13.64;;
66669;SDS011;53568;52.164;4.472;2023-12-29T05:26:10;22.55;;;13.34;;
66669;SDS011;53568;52.164;4.472;2023-12-29T05:28:36;24.08;;;14.11;;
66669;SDS011;53568;52.164;4.472;2023-12-29T05:31:02;24.68;;;14.39;;
66669;SDS011;53568;52.164;4.472;2023-12-29T05:33:32;23.00;;;13.38;;
66669;SDS011;53568;52.164;4.472;2023-12-29T05:35:59;24.07;;;14.10;;
66669;SDS011;53568;52.164;4.472;2023-12-29T05:38:32;22.02;;;13.14;;
66669;SDS011;53568;52.164;4.472;2023-12-29T05:40:59;22.76;;;13.57;;
66669;SDS011;53568;52.164;4.472;2023-12-29T05:43:26;23.07;;;13.56;;
66669;SDS011;53568;52.164;4.472;2023-12-29T05:45:52;23.19;;;13.52;;
66669;SDS011;53568;52.164;4.472;2023-12-29T05:48:17;22.59;;;13.36;;
66669;SDS011;53568;52.164;4.472;2023-12-29T05:50:43;23.06;;;13.58;;
66669;SDS011;53568;52.164;4.472;2023-12-29T05:53:08;23.83;;;13.92;;
66669;SDS011;53568;52.164;4.472;2023-12-29T05:55:34;24.97;;;14.56;;
66669;SDS011;53568;52.164;4.472;2023-12-29T05:58:00;25.47;;;14.85;;
66669;SDS011;53568;52.164;4.472;2023-12-29T06:00:25;24.32;;;14.47;;
66669;SDS011;53568;52.164;4.472;2023-12-29T06:02:51;26.01;;;15.36;;
66669;SDS011;53568;52.164;4.472;2023-12-29T06:05:16;27.10;;;15.73;;
66669;SDS011;53568;52.164;4.472;2023-12-29T06:07:42;26.67;;;15.50;;
66669;SDS011;53568;52.164;4.472;2023-12-29T06:10:07;23.92;;;13.99;;
66669;SDS011;53568;52.164;4.472;2023-12-29T06:12:34;24.53;;;14.37;;
66669;SDS011;53568;52.164;4.472;2023-12-29T06:15:00;23.96;;;14.03;;
66669;SDS011;53568;52.164;4.472;2023-12-29T06:17:26;23.52;;;13.73;;
66669;SDS011;53568;52.164;4.472;2023-12-29T06:19:51;22.93;;;13.41;;
66669;SDS011;53568;52.164;4.472;2023-12-29T06:22:18;21.17;;;12.50;;
66669;SDS011;53568;52.164;4.472;2023-12-29T06:24:43;19.55;;;11.65;;
66669;SDS011;53568;52.164;4.472;2023-12-29T06:27:10;19.48;;;11.62;;
66669;SDS011;53568;52.164;4.472;2023-12-29T06:29:37;19.64;;;11.55;;
66669;SDS011;53568;52.164;4.472;2023-12-29T06:32:03;21.31;;;12.44;;
66669;SDS011;53568;52.164;4.472;2023-12-29T06:34:29;17.66;;;10.57;;
66669;SDS011;53568;52.164;4.472;2023-12-29T06:36:55;18.38;;;10.95;;
66669;SDS011;53568;52.164;4.472;2023-12-29T06:39:20;20.75;;;11.98;;
66669;SDS011;53568;52.164;4.472;2023-12-29T06:41:46;20.75;;;12.02;;
66669;SDS011;53568;52.164;4.472;2023-12-29T06:44:11;19.36;;;11.31;;
66669;SDS011;53568;52.164;4.472;2023-12-29T06:46:37;19.52;;;11.37;;
66669;SDS011;53568;52.164;4.472;2023-12-29T06:49:03;19.14;;;11.19;;
66669;SDS011;53568;52.164;4.472;2023-12-29T06:51:29;19.32;;;11.41;;
66669;SDS011;53568;52.164;4.472;2023-12-29T06:53:54;17.97;;;10.75;;
66669;SDS011;53568;52.164;4.472;2023-12-29T06:56:20;17.37;;;10.45;;
66669;SDS011;53568;52.164;4.472;2023-12-29T06:58:45;17.80;;;10.80;;
66669;SDS011;53568;52.164;4.472;2023-12-29T07:01:11;18.59;;;11.16;;
66669;SDS011;53568;52.164;4.472;2023-12-29T07:03:37;17.88;;;10.65;;
66669;SDS011;53568;52.164;4.472;2023-12-29T07:06:03;18.06;;;10.70;;
66669;SDS011;53568;52.164;4.472;2023-12-29T07:08:29;18.84;;;11.12;;
66669;SDS011;53568;52.164;4.472;2023-12-29T07:10:54;17.73;;;10.53;;
66669;SDS011;53568;52.164;4.472;2023-12-29T07:13:20;15.28;;;9.22;;
66669;SDS011;53568;52.164;4.472;2023-12-29T07:15:48;16.43;;;9.79;;
66669;SDS011;53568;52.164;4.472;2023-12-29T07:18:14;16.52;;;9.83;;
66669;SDS011;53568;52.164;4.472;2023-12-29T07:20:41;17.29;;;10.35;;
66669;SDS011;53568;52.164;4.472;2023-12-29T07:23:07;15.32;;;9.10;;
66669;SDS011;53568;52.164;4.472;2023-12-29T07:25:32;13.57;;;8.28;;
66669;SDS011;53568;52.164;4.472;2023-12-29T07:27:58;15.99;;;9.73;;
66669;SDS011;53568;52.164;4.472;2023-12-29T07:30:23;17.53;;;10.45;;
66669;SDS011;53568;52.164;4.472;2023-12-29T07:32:49;17.17;;;10.14;;
66669;SDS011;53568;52.164;4.472;2023-12-29T07:35:14;16.83;;;10.17;;
66669;SDS011;53568;52.164;4.472;2023-12-29T07:37:44;14.62;;;9.00;;
66669;SDS011;53568;52.164;4.472;2023-12-29T07:40:11;15.01;;;9.27;;
66669;SDS011;53568;52.164;4.472;2023-12-29T07:42:38;14.15;;;8.59;;
66669;SDS011;53568;52.164;4.472;2023-12-29T07:45:09;14.37;;;8.79;;
66669;SDS011;53568;52.164;4.472;2023-12-29T07:47:35;14.79;;;8.93;;
66669;SDS011;53568;52.164;4.472;2023-12-29T07:50:01;15.24;;;9.10;;
66669;SDS011;53568;52.164;4.472;2023-12-29T07:52:27;14.58;;;8.72;;
66669;SDS011;53568;52.164;4.472;2023-12-29T07:54:53;13.80;;;8.31;;
66669;SDS011;53568;52.164;4.472;2023-12-29T07:57:19;13.20;;;8.03;;
66669;SDS011;53568;52.164;4.472;2023-12-29T07:59:44;10.81;;;6.69;;
66669;SDS011;53568;52.164;4.472;2023-12-29T08:02:10;10.38;;;6.38;;
66669;SDS011;53568;52.164;4.472;2023-12-29T08:04:35;11.28;;;6.92;;
66669;SDS011;53568;52.164;4.472;2023-12-29T08:07:01;11.30;;;6.92;;
66669;SDS011;53568;52.164;4.472;2023-12-29T08:09:27;12.17;;;7.45;;
66669;SDS011;53568;52.164;4.472;2023-12-29T08:11:52;10.11;;;6.19;;
66669;SDS011;53568;52.164;4.472;2023-12-29T08:14:18;10.27;;;6.48;;
66669;SDS011;53568;52.164;4.472;2023-12-29T08:16:44;8.90;;;5.67;;
66669;SDS011;53568;52.164;4.472;2023-12-29T08:19:09;10.64;;;6.57;;
66669;SDS011;53568;52.164;4.472;2023-12-29T08:21:35;9.49;;;5.83;;
66669;SDS011;53568;52.164;4.472;2023-12-29T08:24:01;8.19;;;5.12;;
66669;SDS011;53568;52.164;4.472;2023-12-29T08:26:28;8.85;;;5.63;;
66669;SDS011;53568;52.164;4.472;2023-12-29T08:28:54;8.44;;;5.42;;
66669;SDS011;53568;52.164;4.472;2023-12-29T08:31:20;8.36;;;5.40;;
66669;SDS011;53568;52.164;4.472;2023-12-29T08:33:47;8.26;;;5.36;;
66669;SDS011;53568;52.164;4.472;2023-12-29T08:36:13;8.43;;;5.38;;
66669;SDS011;53568;52.164;4.472;2023-12-29T08:38:38;8.04;;;5.22;;
66669;SDS011;53568;52.164;4.472;2023-12-29T08:41:04;7.97;;;5.20;;
66669;SDS011;53568;52.164;4.472;2023-12-29T08:43:30;8.87;;;5.68;;
66669;SDS011;53568;52.164;4.472;2023-12-29T08:45:56;8.48;;;5.40;;
66669;SDS011;53568;52.164;4.472;2023-12-29T08:48:22;9.20;;;5.84;;
66669;SDS011;53568;52.164;4.472;2023-12-29T08:50:48;8.29;;;5.30;;
66669;SDS011;53568;52.164;4.472;2023-12-29T08:53:15;8.16;;;5.20;;
66669;SDS011;53568;52.164;4.472;2023-12-29T08:55:43;9.60;;;6.15;;
66669;SDS011;53568;52.164;4.472;2023-12-29T08:58:08;9.56;;;6.01;;
66669;SDS011;53568;52.164;4.472;2023-12-29T09:00:34;9.44;;;5.84;;
66669;SDS011;53568;52.164;4.472;2023-12-29T09:02:59;9.24;;;5.70;;
66669;SDS011;53568;52.164;4.472;2023-12-29T09:05:25;9.26;;;5.73;;
66669;SDS011;53568;52.164;4.472;2023-12-29T09:07:51;9.67;;;6.01;;
66669;SDS011;53568;52.164;4.472;2023-12-29T09:10:16;9.79;;;6.03;;
66669;SDS011;53568;52.164;4.472;2023-12-29T09:12:43;10.04;;;6.08;;
66669;SDS011;53568;52.164;4.472;2023-12-29T09:15:09;10.30;;;6.27;;
66669;SDS011;53568;52.164;4.472;2023-12-29T09:17:35;9.30;;;5.71;;
66669;SDS011;53568;52.164;4.472;2023-12-29T09:20:02;10.11;;;6.21;;
66669;SDS011;53568;52.164;4.472;2023-12-29T09:22:28;10.09;;;6.27;;
66669;SDS011;53568;52.164;4.472;2023-12-29T09:24:54;10.83;;;6.65;;
66669;SDS011;53568;52.164;4.472;2023-12-29T09:27:21;12.34;;;7.44;;
66669;SDS011;53568;52.164;4.472;2023-12-29T09:29:46;11.98;;;7.13;;
66669;SDS011;53568;52.164;4.472;2023-12-29T09:32:12;13.00;;;7.66;;
66669;SDS011;53568;52.164;4.472;2023-12-29T09:34:38;12.17;;;7.22;;
66669;SDS011;53568;52.164;4.472;2023-12-29T09:37:03;11.83;;;7.10;;
66669;SDS011;53568;52.164;4.472;2023-12-29T09:39:29;10.93;;;6.63;;
66669;SDS011;53568;52.164;4.472;2023-12-29T09:41:55;11.34;;;6.93;;
66669;SDS011;53568;52.164;4.472;2023-12-29T09:44:25;13.41;;;8.12;;
66669;SDS011;53568;52.164;4.472;2023-12-29T09:46:54;13.28;;;7.90;;
66669;SDS011;53568;52.164;4.472;2023-12-29T09:49:21;13.42;;;8.07;;
66669;SDS011;53568;52.164;4.472;2023-12-29T09:51:49;12.99;;;7.81;;
66669;SDS011;53568;52.164;4.472;2023-12-29T09:54:15;14.00;;;8.35;;
66669;SDS011;53568;52.164;4.472;2023-12-29T09:56:41;14.07;;;8.41;;
66669;SDS011;53568;52.164;4.472;2023-12-29T09:59:10;13.67;;;8.11;;
66669;SDS011;53568;52.164;4.472;2023-12-29T10:01:38;14.93;;;8.82;;
66669;SDS011;53568;52.164;4.472;2023-12-29T10:04:06;13.88;;;8.28;;
66669;SDS011;53568;52.164;4.472;2023-12-29T10:06:34;14.17;;;8.40;;
66669;SDS011;53568;52.164;4.472;2023-12-29T10:09:03;15.85;;;9.32;;
66669;SDS011;53568;52.164;4.472;2023-12-29T10:11:34;16.43;;;9.68;;
66669;SDS011;53568;52.164;4.472;2023-12-29T10:14:03;15.95;;;9.44;;
66669;SDS011;53568;52.164;4.472;2023-12-29T10:16:45;14.56;;;8.67;;
66669;SDS011;53568;52.164;4.472;2023-12-29T10:24:17;17.57;;;10.30;;
66669;SDS011;53568;52.164;4.472;2023-12-29T10:26:46;16.65;;;9.78;;
66669;SDS011;53568;52.164;4.472;2023-12-29T10:29:12;18.50;;;10.79;;
66669;SDS011;53568;52.164;4.472;2023-12-29T10:31:39;17.04;;;10.10;;
66669;SDS011;53568;52.164;4.472;2023-12-29T10:34:17;15.66;;;9.36;;
66669;SDS011;53568;52.164;4.472;2023-12-29T10:36:53;15.52;;;9.47;;
66669;SDS011;53568;52.164;4.472;2023-12-29T10:39:19;16.32;;;9.79;;
66669;SDS011;53568;52.164;4.472;2023-12-29T10:41:44;16.38;;;9.85;;
66669;SDS011;53568;52.164;4.472;2023-12-29T10:44:10;14.60;;;8.89;;
66669;SDS011;53568;52.164;4.472;2023-12-29T10:46:35;15.28;;;9.33;;
66669;SDS011;53568;52.164;4.472;2023-12-29T10:49:08;16.79;;;10.04;;
66669;SDS011;53568;52.164;4.472;2023-12-29T10:51:35;17.94;;;10.66;;
66669;SDS011;53568;52.164;4.472;2023-12-29T10:54:02;17.38;;;10.31;;
66669;SDS011;53568;52.164;4.472;2023-12-29T10:56:29;19.51;;;11.35;;
66669;SDS011;53568;52.164;4.472;2023-12-29T11:01:35;17.51;;;10.29;;
66669;SDS011;53568;52.164;4.472;2023-12-29T11:04:01;16.64;;;9.89;;
66669;SDS011;53568;52.164;4.472;2023-12-29T11:06:28;16.64;;;9.84;;
66669;SDS011;53568;52.164;4.472;2023-12-29T11:09:04;14.65;;;8.75;;
66669;SDS011;53568;52.164;4.472;2023-12-29T11:11:30;15.51;;;9.27;;
66669;SDS011;53568;52.164;4.472;2023-12-29T11:13:57;15.36;;;9.19;;
66669;SDS011;53568;52.164;4.472;2023-12-29T11:16:23;15.66;;;9.21;;
66669;SDS011;53568;52.164;4.472;2023-12-29T11:18:50;17.49;;;10.23;;
66669;SDS011;53568;52.164;4.472;2023-12-29T11:21:16;15.26;;;9.05;;
66669;SDS011;53568;52.164;4.472;2023-12-29T11:23:43;15.75;;;9.27;;
66669;SDS011;53568;52.164;4.472;2023-12-29T11:26:09;15.06;;;8.86;;
66669;SDS011;53568;52.164;4.472;2023-12-29T11:28:34;13.85;;;8.14;;
66669;SDS011;53568;52.164;4.472;2023-12-29T11:31:00;14.20;;;8.45;;
66669;SDS011;53568;52.164;4.472;2023-12-29T11:33:28;14.52;;;8.61;;
66669;SDS011;53568;52.164;4.472;2023-12-29T11:44:12;13.19;;;7.83;;
66669;SDS011;53568;52.164;4.472;2023-12-29T11:46:44;12.27;;;7.25;;
66669;SDS011;53568;52.164;4.472;2023-12-29T11:49:10;14.12;;;8.17;;
66669;SDS011;53568;52.164;4.472;2023-12-29T11:51:42;14.06;;;8.19;;
66669;SDS011;53568;52.164;4.472;2023-12-29T11:54:08;12.92;;;7.68;;
66669;SDS011;53568;52.164;4.472;2023-12-29T11:56:35;12.85;;;7.72;;
66669;SDS011;53568;52.164;4.472;2023-12-29T11:59:17;12.21;;;7.38;;
66669;SDS011;53568;52.164;4.472;2023-12-29T12:01:51;12.74;;;7.57;;
66669;SDS011;53568;52.164;4.472;2023-12-29T12:07:06;12.82;;;7.59;;
66669;SDS011;53568;52.164;4.472;2023-12-29T12:10:37;12.70;;;7.95;;
66669;SDS011;53568;52.164;4.472;2023-12-29T12:12:46;10.45;;;6.76;;
66669;SDS011;53568;52.164;4.472;2023-12-29T12:18:15;10.89;;;6.64;;
66669;SDS011;53568;52.164;4.472;2023-12-29T12:20:40;11.01;;;6.59;;
66669;SDS011;53568;52.164;4.472;2023-12-29T12:23:16;12.41;;;7.30;;
66669;SDS011;53568;52.164;4.472;2023-12-29T12:25:43;12.53;;;7.36;;
66669;SDS011;53568;52.164;4.472;2023-12-29T12:28:11;12.92;;;7.67;;
66669;SDS011;53568;52.164;4.472;2023-12-29T12:30:39;11.87;;;7.19;;
66669;SDS011;53568;52.164;4.472;2023-12-29T12:33:05;12.06;;;7.19;;
66669;SDS011;53568;52.164;4.472;2023-12-29T12:35:30;12.19;;;7.27;;
66669;SDS011;53568;52.164;4.472;2023-12-29T12:40:34;11.38;;;6.88;;
66669;SDS011;53568;52.164;4.472;2023-12-29T12:43:00;10.93;;;6.65;;
66669;SDS011;53568;52.164;4.472;2023-12-29T12:45:26;12.03;;;7.24;;
66669;SDS011;53568;52.164;4.472;2023-12-29T12:50:53;9.96;;;6.02;;
66669;SDS011;53568;52.164;4.472;2023-12-29T12:53:22;10.28;;;6.17;;
66669;SDS011;53568;52.164;4.472;2023-12-29T12:55:49;10.65;;;6.37;;
66669;SDS011;53568;52.164;4.472;2023-12-29T12:58:17;11.36;;;6.76;;
66669;SDS011;53568;52.164;4.472;2023-12-29T13:00:45;9.79;;;5.86;;
66669;SDS011;53568;52.164;4.472;2023-12-29T13:03:12;9.95;;;5.96;;
66669;SDS011;53568;52.164;4.472;2023-12-29T13:05:38;10.70;;;6.35;;
66669;SDS011;53568;52.164;4.472;2023-12-29T13:08:05;11.09;;;6.57;;
66669;SDS011;53568;52.164;4.472;2023-12-29T13:10:31;10.95;;;6.48;;
66669;SDS011;53568;52.164;4.472;2023-12-29T13:12:57;10.64;;;6.32;;
66669;SDS011;53568;52.164;4.472;2023-12-29T13:15:23;11.17;;;6.67;;
66669;SDS011;53568;52.164;4.472;2023-12-29T13:17:52;11.83;;;7.05;;
66669;SDS011;53568;52.164;4.472;2023-12-29T13:20:21;12.48;;;7.38;;
66669;SDS011;53568;52.164;4.472;2023-12-29T13:22:47;11.38;;;6.82;;
66669;SDS011;53568;52.164;4.472;2023-12-29T13:25:18;10.48;;;6.25;;
66669;SDS011;53568;52.164;4.472;2023-12-29T13:27:46;11.52;;;6.90;;
66669;SDS011;53568;52.164;4.472;2023-12-29T13:30:13;10.92;;;6.62;;
66669;SDS011;53568;52.164;4.472;2023-12-29T13:32:40;10.78;;;6.47;;
66669;SDS011;53568;52.164;4.472;2023-12-29T13:38:02;9.92;;;6.01;;
66669;SDS011;53568;52.164;4.472;2023-12-29T13:40:41;9.24;;;5.67;;
66669;SDS011;53568;52.164;4.472;2023-12-29T13:43:15;9.11;;;5.53;;
66669;SDS011;53568;52.164;4.472;2023-12-29T13:45:43;11.25;;;6.75;;
66669;SDS011;53568;52.164;4.472;2023-12-29T13:48:09;9.67;;;5.85;;
66669;SDS011;53568;52.164;4.472;2023-12-29T13:50:38;10.59;;;6.41;;
66669;SDS011;53568;52.164;4.472;2023-12-29T13:53:05;10.21;;;6.07;;
66669;SDS011;53568;52.164;4.472;2023-12-29T13:55:31;9.77;;;5.80;;
66669;SDS011;53568;52.164;4.472;2023-12-29T13:57:56;10.54;;;6.28;;
66669;SDS011;53568;52.164;4.472;2023-12-29T14:00:23;10.58;;;6.30;;
66669;SDS011;53568;52.164;4.472;2023-12-29T14:05:32;10.48;;;6.27;;
66669;SDS011;53568;52.164;4.472;2023-12-29T14:08:55;10.06;;;6.15;;
66669;SDS011;53568;52.164;4.472;2023-12-29T14:11:08;10.58;;;6.47;;
66669;SDS011;53568;52.164;4.472;2023-12-29T14:13:35;10.31;;;6.38;;
66669;SDS011;53568;52.164;4.472;2023-12-29T14:16:01;10.75;;;6.59;;
66669;SDS011;53568;52.164;4.472;2023-12-29T14:18:42;10.59;;;6.48;;
66669;SDS011;53568;52.164;4.472;2023-12-29T14:21:22;10.40;;;6.42;;
66669;SDS011;53568;52.164;4.472;2023-12-29T14:23:58;10.22;;;6.22;;
66669;SDS011;53568;52.164;4.472;2023-12-29T14:26:40;10.36;;;6.23;;
66669;SDS011;53568;52.164;4.472;2023-12-29T14:29:10;11.63;;;6.97;;
66669;SDS011;53568;52.164;4.472;2023-12-29T14:31:40;11.24;;;6.72;;
66669;SDS011;53568;52.164;4.472;2023-12-29T14:34:08;12.70;;;7.60;;
66669;SDS011;53568;52.164;4.472;2023-12-29T14:36:34;12.97;;;7.71;;
66669;SDS011;53568;52.164;4.472;2023-12-29T14:39:00;12.96;;;7.74;;
66669;SDS011;53568;52.164;4.472;2023-12-29T14:41:28;12.71;;;7.60;;
66669;SDS011;53568;52.164;4.472;2023-12-29T14:43:54;12.75;;;7.74;;
66669;SDS011;53568;52.164;4.472;2023-12-29T14:46:20;12.40;;;7.51;;
66669;SDS011;53568;52.164;4.472;2023-12-29T14:48:46;12.14;;;7.32;;
66669;SDS011;53568;52.164;4.472;2023-12-29T14:51:12;12.67;;;7.70;;
66669;SDS011;53568;52.164;4.472;2023-12-29T14:53:38;12.82;;;7.92;;
66669;SDS011;53568;52.164;4.472;2023-12-29T14:56:04;12.78;;;7.89;;
66669;SDS011;53568;52.164;4.472;2023-12-29T14:58:30;11.46;;;7.25;;
66669;SDS011;53568;52.164;4.472;2023-12-29T15:00:57;11.23;;;7.08;;
66669;SDS011;53568;52.164;4.472;2023-12-29T15:03:23;11.94;;;7.46;;
66669;SDS011;53568;52.164;4.472;2023-12-29T15:05:49;10.59;;;6.68;;
66669;SDS011;53568;52.164;4.472;2023-12-29T15:08:15;12.24;;;7.65;;